METAR AND TAF INFORMATION
METAR FOR KRDM
KRDM 211456Z AUTO 00000KT 10SM CLR 17/01 A3002 RMK AO2 SLP141 T01720011 51005
KRDM 211356Z AUTO 15004KT 10SM CLR 13/01 A3002 RMK AO2 SLP142 T01330006
KRDM 211256Z AUTO 17003KT 10SM CLR 09/M01 A3001 RMK AO2 SLP143 T00941006
KRDM 211120Z 2112/2212 VRB05KT P6SM BKN250

 AIRPORT MAP

 RUNWAY INFORMATION
Runway 04 Runway length 7040 ft Runway width 150 ft
Runway elevation 3070 ft Runway displaced threshold 0 ft Runway heading 60
Runway 22 Runway length 7040 ft Runway width 150 ft
Runway elevation 3050 ft Runway displaced threshold 0 ft Runway heading 240
Runway 10 Runway length 6998 ft Runway width 100 ft
Runway elevation 3041 ft Runway displaced threshold 0 ft Runway heading 122
Runway 28 Runway length 6998 ft Runway width 100 ft
Runway elevation 3077 ft Runway displaced threshold 0 ft Runway heading 302

 AIRPORT FREQUENCIES
Type ASOS Name ASOS Frequency 119.025 MHZ
Type CNTR Name SEATTLE CN Frequency 128.15 MHZ
Type CTAF Name CTAF Frequency 124.5 MHZ
Type GND Name GND Frequency 121.8 MHZ
Type RDO Name MC MINNVIL Frequency 122.5 MHZ
Type TWR Name REDMOND TW Frequency 124.5 MHZ
Type UNIC Name UNICOM Frequency 122.95 MHZ

 AIRPORT NEAR NAVIGATION AIDS
Type NDB Name Bodey Frequency 411 KHZ

-